Time;durP1;ratioP1;P1;durP2;ratioP2;P2;SDS_P1;SDS_P2;PMS_P1;PMS_P2;Temp;Humidity;BMP_temperature;BMP_pressure;BME280_temperature;BME280_humidity;BME280_pressure;Samples;Min_cycle;Max_cycle;Signal;HPM_P1;HPM_P2
2024/03/09 00:00:42;;;;;;;20.53;16.77;;;;;;;;;;4933804;28;20587;-87
2024/03/09 00:03:09;;;;;;;22.63;16.93;;;;;;;;;;4946268;28;20323;-86
2024/03/09 00:05:34;;;;;;;22.97;17.23;;;;;;;;;;4880452;29;20232;-86
2024/03/09 00:08:02;;;;;;;22.60;17.27;;;;;;;;;;4950202;28;20237;-85
2024/03/09 00:10:32;;;;;;;20.73;16.80;;;;;;;;;;4921413;29;20231;-86
2024/03/09 00:13:00;;;;;;;21.10;16.97;;;;;;;;;;4933013;28;20958;-87
2024/03/09 00:15:27;;;;;;;22.53;17.83;;;;;;;;;;4917611;28;20259;-87
2024/03/09 00:17:53;;;;;;;24.27;17.87;;;;;;;;;;4899518;29;20256;-86
2024/03/09 00:20:21;;;;;;;22.30;16.57;;;;;;;;;;4894586;28;20220;-87
2024/03/09 00:22:49;;;;;;;23.30;16.80;;;;;;;;;;4931773;29;20230;-87
2024/03/09 00:25:22;;;;;;;23.47;17.53;;;;;;;;;;4939663;28;20277;-84
2024/03/09 00:27:49;;;;;;;24.50;18.43;;;;;;;;;;4925641;29;20223;-86
2024/03/09 00:30:20;;;;;;;22.47;17.10;;;;;;;;;;4898226;29;20228;-85
2024/03/09 00:32:51;;;;;;;25.00;18.47;;;;;;;;;;4931588;29;20231;-86
2024/03/09 00:35:20;;;;;;;23.20;17.83;;;;;;;;;;4915603;28;20277;-86
2024/03/09 00:37:45;;;;;;;22.97;17.90;;;;;;;;;;4953921;28;20242;-86
2024/03/09 00:40:17;;;;;;;22.77;17.73;;;;;;;;;;4917738;29;20695;-86
2024/03/09 00:42:42;;;;;;;21.80;18.00;;;;;;;;;;4917824;29;20232;-86
2024/03/09 00:45:09;;;;;;;23.37;18.43;;;;;;;;;;4942845;28;20219;-85
2024/03/09 00:47:38;;;;;;;24.07;18.47;;;;;;;;;;4911752;29;20230;-87
2024/03/09 00:50:11;;;;;;;25.23;18.87;;;;;;;;;;4945543;28;20302;-86
2024/03/09 00:52:37;;;;;;;23.13;17.93;;;;;;;;;;4911292;29;20224;-85
2024/03/09 00:55:04;;;;;;;23.70;17.97;;;;;;;;;;4911038;29;20224;-85
2024/03/09 00:57:36;;;;;;;23.77;18.53;;;;;;;;;;4921605;29;20228;-85
2024/03/09 01:00:09;;;;;;;23.07;18.07;;;;;;;;;;4898219;29;20231;-86
2024/03/09 01:02:35;;;;;;;23.23;17.67;;;;;;;;;;4926918;29;20234;-86
2024/03/09 01:05:04;;;;;;;21.67;17.47;;;;;;;;;;4917199;29;20238;-86
2024/03/09 01:07:30;;;;;;;24.33;18.30;;;;;;;;;;4933291;28;20246;-87
2024/03/09 01:09:56;;;;;;;24.00;17.97;;;;;;;;;;4919692;29;20254;-86
2024/03/09 01:12:26;;;;;;;22.87;17.90;;;;;;;;;;4917645;28;20215;-87
2024/03/09 01:14:54;;;;;;;25.20;18.37;;;;;;;;;;4921106;29;20235;-86
2024/03/09 01:17:23;;;;;;;22.30;17.37;;;;;;;;;;4923617;28;20219;-86
2024/03/09 01:19:51;;;;;;;25.30;18.97;;;;;;;;;;4911539;29;20319;-84
2024/03/09 01:22:17;;;;;;;24.63;17.87;;;;;;;;;;4949890;28;20701;-87
2024/03/09 01:24:43;;;;;;;24.13;18.40;;;;;;;;;;4901237;29;20238;-86
2024/03/09 01:27:11;;;;;;;24.00;18.07;;;;;;;;;;4934224;28;20243;-87
2024/03/09 01:29:43;;;;;;;27.03;18.23;;;;;;;;;;4937207;28;20259;-86
2024/03/09 01:32:14;;;;;;;22.73;18.63;;;;;;;;;;4920346;28;20222;-86
2024/03/09 01:34:41;;;;;;;24.30;18.60;;;;;;;;;;4935894;28;20232;-87
2024/03/09 01:37:11;;;;;;;25.07;17.90;;;;;;;;;;4922408;28;20228;-86
2024/03/09 01:39:44;;;;;;;22.20;17.23;;;;;;;;;;4929031;29;20246;-86
2024/03/09 01:42:12;;;;;;;23.40;18.17;;;;;;;;;;4946176;28;20346;-86
2024/03/09 01:44:40;;;;;;;24.70;18.80;;;;;;;;;;4935339;29;20231;-86
2024/03/09 01:47:08;;;;;;;23.70;18.33;;;;;;;;;;4947318;29;20247;-86
2024/03/09 01:49:36;;;;;;;23.10;18.40;;;;;;;;;;4907436;29;20352;-85
2024/03/09 01:52:05;;;;;;;25.07;19.00;;;;;;;;;;4916888;28;20988;-86
2024/03/09 01:54:31;;;;;;;22.60;18.13;;;;;;;;;;4938356;29;20277;-85
2024/03/09 01:56:57;;;;;;;25.93;18.50;;;;;;;;;;4933436;28;20928;-87
2024/03/09 01:59:23;;;;;;;24.47;18.27;;;;;;;;;;4925455;28;22555;-86
2024/03/09 02:01:50;;;;;;;24.83;18.13;;;;;;;;;;4931034;29;20366;-86
2024/03/09 02:04:19;;;;;;;24.97;18.17;;;;;;;;;;4921834;29;20225;-86
2024/03/09 02:06:46;;;;;;;25.10;18.43;;;;;;;;;;4925621;29;20227;-85
2024/03/09 02:09:15;;;;;;;24.77;18.07;;;;;;;;;;4918138;28;20234;-86
2024/03/09 02:11:43;;;;;;;23.63;18.17;;;;;;;;;;4923771;29;20235;-86
2024/03/09 02:14:12;;;;;;;23.07;17.33;;;;;;;;;;4943969;28;20218;-86
2024/03/09 02:16:37;;;;;;;25.40;19.10;;;;;;;;;;4911591;29;20490;-85
2024/03/09 02:19:08;;;;;;;22.17;18.27;;;;;;;;;;4931990;28;20224;-86
2024/03/09 02:21:37;;;;;;;24.13;17.73;;;;;;;;;;4921939;29;20243;-86
2024/03/09 02:24:07;;;;;;;26.83;18.30;;;;;;;;;;4897581;29;20223;-86
2024/03/09 02:26:37;;;;;;;24.60;18.57;;;;;;;;;;4900641;29;20246;-86
2024/03/09 02:29:02;;;;;;;27.07;19.17;;;;;;;;;;4922126;29;20241;-86
2024/03/09 02:31:30;;;;;;;27.33;19.47;;;;;;;;;;4934468;29;20234;-86
2024/03/09 02:33:58;;;;;;;25.60;18.30;;;;;;;;;;4939162;28;20227;-86
2024/03/09 02:36:27;;;;;;;27.23;18.27;;;;;;;;;;4969857;28;20227;-85
2024/03/09 02:38:53;;;;;;;26.80;19.17;;;;;;;;;;4919521;29;21024;-85
2024/03/09 02:41:19;;;;;;;24.70;18.73;;;;;;;;;;4933898;28;20224;-86
2024/03/09 02:43:46;;;;;;;25.00;18.50;;;;;;;;;;4943621;29;20227;-86
2024/03/09 02:46:15;;;;;;;26.37;19.67;;;;;;;;;;4917391;28;20261;-86
2024/03/09 02:48:42;;;;;;;25.27;18.40;;;;;;;;;;4958104;28;20272;-86
2024/03/09 02:51:12;;;;;;;26.27;19.77;;;;;;;;;;4924054;28;20220;-84
2024/03/09 02:53:40;;;;;;;24.73;18.47;;;;;;;;;;4945606;29;20242;-83
2024/03/09 02:56:12;;;;;;;25.13;19.70;;;;;;;;;;4930038;28;20259;-85
2024/03/09 02:58:41;;;;;;;26.47;19.47;;;;;;;;;;4937367;29;20324;-85
2024/03/09 03:01:07;;;;;;;22.57;18.97;;;;;;;;;;4919220;28;20243;-84
2024/03/09 03:03:57;;;;;;;23.07;19.50;;;;;;;;;;4937049;29;20608;-85
2024/03/09 03:06:22;;;;;;;25.47;19.03;;;;;;;;;;4943419;29;20230;-87
2024/03/09 03:08:55;;;;;;;28.10;20.60;;;;;;;;;;4911525;29;20231;-85
2024/03/09 03:11:21;;;;;;;27.60;19.50;;;;;;;;;;4892895;28;20247;-86
2024/03/09 03:13:50;;;;;;;25.47;19.23;;;;;;;;;;4970941;28;20473;-85
2024/03/09 03:16:19;;;;;;;26.67;20.43;;;;;;;;;;4921608;29;20231;-85
2024/03/09 03:18:48;;;;;;;26.00;19.37;;;;;;;;;;4921743;29;20241;-86
2024/03/09 03:21:14;;;;;;;25.47;19.00;;;;;;;;;;4910773;28;20222;-84
2024/03/09 03:23:47;;;;;;;26.20;20.37;;;;;;;;;;4914229;29;20236;-85
2024/03/09 03:26:19;;;;;;;26.63;19.20;;;;;;;;;;4954758;28;20242;-85
2024/03/09 03:28:48;;;;;;;26.77;19.10;;;;;;;;;;4941172;28;20228;-85
2024/03/09 03:31:18;;;;;;;24.20;19.67;;;;;;;;;;4932708;28;20306;-86
2024/03/09 03:33:44;;;;;;;24.23;18.77;;;;;;;;;;4945711;28;20293;-86
2024/03/09 03:36:11;;;;;;;27.23;20.67;;;;;;;;;;4940784;28;20446;-84
2024/03/09 03:38:42;;;;;;;24.70;19.83;;;;;;;;;;4936908;28;20772;-85
2024/03/09 03:41:10;;;;;;;27.17;19.83;;;;;;;;;;4951805;28;20241;-85
2024/03/09 03:43:37;;;;;;;25.20;19.17;;;;;;;;;;4944202;28;20214;-84
2024/03/09 03:46:07;;;;;;;24.10;18.53;;;;;;;;;;4930505;28;20220;-86
2024/03/09 03:48:35;;;;;;;26.07;19.77;;;;;;;;;;4939014;29;20230;-85
2024/03/09 03:51:03;;;;;;;27.17;19.53;;;;;;;;;;4932461;29;20227;-85
2024/03/09 03:53:29;;;;;;;26.63;20.53;;;;;;;;;;4911910;29;20219;-85
2024/03/09 03:55:58;;;;;;;24.57;19.60;;;;;;;;;;4902776;29;20239;-87
2024/03/09 04:02:11;;;;;;;25.63;19.33;;;;;;;;;;4951913;28;20278;-84
2024/03/09 04:04:36;;;;;;;25.33;20.37;;;;;;;;;;4900758;29;20634;-86
2024/03/09 04:07:04;;;;;;;27.30;20.20;;;;;;;;;;4948325;28;20250;-85
2024/03/09 04:09:30;;;;;;;27.97;20.73;;;;;;;;;;4917411;28;20265;-86
2024/03/09 04:11:56;;;;;;;27.70;21.03;;;;;;;;;;4945717;28;20325;-85
2024/03/09 04:14:26;;;;;;;29.03;20.20;;;;;;;;;;4952880;28;20642;-85
2024/03/09 04:16:55;;;;;;;26.27;19.90;;;;;;;;;;4940350;29;20214;-86
2024/03/09 04:19:20;;;;;;;25.87;20.03;;;;;;;;;;4935235;29;20233;-86
2024/03/09 04:21:46;;;;;;;28.37;20.87;;;;;;;;;;4923364;28;20236;-86
2024/03/09 04:24:11;;;;;;;26.70;20.37;;;;;;;;;;4933921;28;20259;-83
2024/03/09 04:26:40;;;;;;;28.03;21.47;;;;;;;;;;4919590;29;20234;-86
2024/03/09 04:29:08;;;;;;;30.30;22.00;;;;;;;;;;4925793;29;20223;-86
2024/03/09 04:31:37;;;;;;;29.37;20.87;;;;;;;;;;4912047;29;20227;-87
2024/03/09 04:34:03;;;;;;;29.23;21.60;;;;;;;;;;4919687;29;20316;-87
2024/03/09 04:36:31;;;;;;;28.67;21.37;;;;;;;;;;4948750;28;20232;-86
2024/03/09 04:39:00;;;;;;;29.77;21.53;;;;;;;;;;4933241;28;20220;-88
2024/03/09 04:41:32;;;;;;;27.67;20.40;;;;;;;;;;4923471;29;20237;-87
2024/03/09 04:44:00;;;;;;;31.33;21.50;;;;;;;;;;4945041;28;20328;-86
2024/03/09 04:46:28;;;;;;;31.30;22.43;;;;;;;;;;4917512;29;20219;-87
2024/03/09 04:48:54;;;;;;;30.57;21.20;;;;;;;;;;4933542;29;20223;-85
2024/03/09 04:51:23;;;;;;;29.07;21.53;;;;;;;;;;4930010;28;20318;-86
2024/03/09 04:53:51;;;;;;;30.03;21.17;;;;;;;;;;4904172;29;20230;-87
2024/03/09 04:56:16;;;;;;;30.43;21.93;;;;;;;;;;4917701;29;20236;-85
2024/03/09 04:58:42;;;;;;;27.60;21.37;;;;;;;;;;4931624;29;20235;-86
2024/03/09 05:01:08;;;;;;;30.33;21.23;;;;;;;;;;4919411;29;20222;-85
2024/03/09 05:03:34;;;;;;;30.30;22.67;;;;;;;;;;4935771;28;20241;-85
2024/03/09 05:06:02;;;;;;;29.03;21.83;;;;;;;;;;4932462;29;20219;-85
2024/03/09 05:08:27;;;;;;;30.17;21.93;;;;;;;;;;4931055;28;20219;-86
2024/03/09 05:10:53;;;;;;;29.83;21.73;;;;;;;;;;4960311;28;20227;-85
2024/03/09 05:13:18;;;;;;;31.53;21.63;;;;;;;;;;4918565;29;20226;-86
2024/03/09 05:15:50;;;;;;;32.23;22.07;;;;;;;;;;4919855;29;20220;-86
2024/03/09 05:18:19;;;;;;;32.63;22.53;;;;;;;;;;4919127;29;20568;-86
2024/03/09 05:20:46;;;;;;;31.73;22.40;;;;;;;;;;4918979;29;20590;-85
2024/03/09 05:23:16;;;;;;;29.77;22.57;;;;;;;;;;4942720;28;20254;-85
2024/03/09 05:25:46;;;;;;;29.80;21.77;;;;;;;;;;4912955;29;20251;-86
2024/03/09 05:28:12;;;;;;;32.07;22.37;;;;;;;;;;4957880;28;20759;-87
2024/03/09 05:30:37;;;;;;;29.27;20.87;;;;;;;;;;4918802;29;20239;-85
2024/03/09 05:33:06;;;;;;;29.90;22.27;;;;;;;;;;4918480;28;20249;-85
2024/03/09 05:35:34;;;;;;;31.80;22.30;;;;;;;;;;4923619;29;20224;-85
2024/03/09 05:37:59;;;;;;;30.77;22.53;;;;;;;;;;4922286;29;20287;-86
2024/03/09 05:40:31;;;;;;;32.03;22.83;;;;;;;;;;4937666;28;20232;-86
2024/03/09 05:42:59;;;;;;;30.90;22.87;;;;;;;;;;4932842;29;20304;-85
2024/03/09 05:45:25;;;;;;;29.50;22.00;;;;;;;;;;4932854;28;20274;-85
2024/03/09 05:47:55;;;;;;;32.43;23.07;;;;;;;;;;4933053;29;20220;-88
2024/03/09 05:50:28;;;;;;;30.23;22.73;;;;;;;;;;4914002;28;20313;-85
2024/03/09 05:52:59;;;;;;;28.67;22.77;;;;;;;;;;4933016;29;20230;-87
2024/03/09 05:55:25;;;;;;;33.53;23.20;;;;;;;;;;4916341;28;20230;-86
2024/03/09 05:57:54;;;;;;;33.57;24.07;;;;;;;;;;4918763;29;20283;-86
2024/03/09 06:00:27;;;;;;;31.20;22.70;;;;;;;;;;4911450;28;20229;-85
2024/03/09 06:02:58;;;;;;;33.40;23.03;;;;;;;;;;4908851;29;20286;-85
2024/03/09 06:05:28;;;;;;;33.47;23.23;;;;;;;;;;4930123;29;20231;-86
2024/03/09 06:07:54;;;;;;;31.70;23.53;;;;;;;;;;4909171;29;20223;-86
2024/03/09 06:10:24;;;;;;;31.50;23.57;;;;;;;;;;4913811;28;20278;-85
2024/03/09 06:12:55;;;;;;;32.93;23.50;;;;;;;;;;4934825;29;20238;-86
2024/03/09 06:15:31;;;;;;;33.40;24.10;;;;;;;;;;4935321;28;20246;-85
2024/03/09 06:18:01;;;;;;;36.23;24.60;;;;;;;;;;4929257;29;20242;-85
2024/03/09 06:20:34;;;;;;;30.77;21.80;;;;;;;;;;4917313;28;20294;-85
2024/03/09 06:23:02;;;;;;;29.90;22.90;;;;;;;;;;4916071;29;20399;-86
2024/03/09 06:25:29;;;;;;;33.17;23.30;;;;;;;;;;4914131;29;20310;-87
2024/03/09 06:28:05;;;;;;;36.63;23.50;;;;;;;;;;4928329;29;20222;-86
2024/03/09 06:30:31;;;;;;;33.33;23.93;;;;;;;;;;4945030;28;20232;-85
2024/03/09 06:33:01;;;;;;;31.47;23.47;;;;;;;;;;4942960;29;20246;-87
2024/03/09 06:35:27;;;;;;;32.97;23.40;;;;;;;;;;4933777;29;20224;-84
2024/03/09 06:38:06;;;;;;;32.20;24.17;;;;;;;;;;4929143;29;20230;-86
2024/03/09 06:40:36;;;;;;;33.33;23.60;;;;;;;;;;4920034;29;20586;-87
2024/03/09 06:43:14;;;;;;;32.43;23.77;;;;;;;;;;4926253;29;20228;-86
2024/03/09 06:45:46;;;;;;;30.87;23.70;;;;;;;;;;4948661;28;20269;-85
2024/03/09 06:48:17;;;;;;;32.53;24.37;;;;;;;;;;4921247;29;20231;-84
2024/03/09 06:50:45;;;;;;;34.33;23.17;;;;;;;;;;4910490;29;20223;-86
2024/03/09 06:53:13;;;;;;;36.33;25.83;;;;;;;;;;4891311;28;20235;-86
2024/03/09 06:55:42;;;;;;;33.77;22.63;;;;;;;;;;4930612;29;20255;-84
2024/03/09 06:58:07;;;;;;;34.53;24.87;;;;;;;;;;4927961;28;20253;-85
2024/03/09 07:00:37;;;;;;;32.20;23.47;;;;;;;;;;4940048;28;20828;-84
2024/03/09 07:03:06;;;;;;;32.00;23.70;;;;;;;;;;4927599;28;20223;-85
2024/03/09 07:05:34;;;;;;;33.57;25.43;;;;;;;;;;4926912;29;20235;-87
2024/03/09 07:07:59;;;;;;;32.33;22.97;;;;;;;;;;4945596;29;20226;-85
2024/03/09 07:10:27;;;;;;;30.30;23.90;;;;;;;;;;4930042;28;20224;-85
2024/03/09 07:12:55;;;;;;;31.80;24.03;;;;;;;;;;4937945;29;20230;-86
2024/03/09 07:15:29;;;;;;;33.90;23.43;;;;;;;;;;4954720;28;20231;-88
2024/03/09 07:17:55;;;;;;;34.30;24.50;;;;;;;;;;4922003;29;20219;-86
2024/03/09 07:20:23;;;;;;;31.30;23.27;;;;;;;;;;4920424;28;20230;-85
2024/03/09 07:22:49;;;;;;;33.70;24.60;;;;;;;;;;4936870;29;20223;-86
2024/03/09 07:25:16;;;;;;;31.77;24.13;;;;;;;;;;4917497;28;20211;-85
2024/03/09 07:27:42;;;;;;;28.07;22.33;;;;;;;;;;4940648;29;20232;-84
2024/03/09 07:30:11;;;;;;;31.63;24.80;;;;;;;;;;4916837;29;20224;-87
2024/03/09 07:32:43;;;;;;;31.30;23.57;;;;;;;;;;4936268;28;20236;-87
2024/03/09 07:35:14;;;;;;;30.30;22.83;;;;;;;;;;4925969;28;20694;-85
2024/03/09 07:37:55;;;;;;;32.30;23.97;;;;;;;;;;4951732;28;20595;-85
2024/03/09 07:40:22;;;;;;;32.07;24.33;;;;;;;;;;4904603;28;20267;-87
2024/03/09 07:42:48;;;;;;;33.50;23.80;;;;;;;;;;4923404;29;20654;-87
2024/03/09 07:45:17;;;;;;;29.80;23.73;;;;;;;;;;4968497;28;20214;-87
2024/03/09 07:47:45;;;;;;;30.17;23.57;;;;;;;;;;4923128;28;20230;-86
2024/03/09 07:50:15;;;;;;;29.90;24.00;;;;;;;;;;4941025;29;20242;-87
2024/03/09 07:52:48;;;;;;;32.40;23.20;;;;;;;;;;4920630;29;20262;-88
2024/03/09 07:55:17;;;;;;;30.37;23.87;;;;;;;;;;4904511;29;20278;-88
2024/03/09 07:57:46;;;;;;;29.93;22.63;;;;;;;;;;4926205;28;20236;-87
2024/03/09 08:00:22;;;;;;;28.30;22.33;;;;;;;;;;4911121;29;20269;-88
2024/03/09 08:02:49;;;;;;;29.63;23.10;;;;;;;;;;4911592;29;20281;-88
2024/03/09 08:05:22;;;;;;;30.33;23.23;;;;;;;;;;4901308;29;20227;-88
2024/03/09 08:07:47;;;;;;;30.80;23.20;;;;;;;;;;4909150;29;20227;-86
2024/03/09 08:10:18;;;;;;;30.03;23.40;;;;;;;;;;4887482;29;20247;-86
2024/03/09 08:12:46;;;;;;;33.03;22.70;;;;;;;;;;4929502;29;20251;-87
2024/03/09 08:15:12;;;;;;;29.77;22.60;;;;;;;;;;4936507;28;20286;-87
2024/03/09 08:17:47;;;;;;;31.10;23.37;;;;;;;;;;4942070;28;20263;-88
2024/03/09 08:20:14;;;;;;;30.17;23.17;;;;;;;;;;4919045;28;20241;-89
2024/03/09 08:22:43;;;;;;;29.93;23.40;;;;;;;;;;4944385;29;20255;-88
2024/03/09 08:25:15;;;;;;;31.00;23.30;;;;;;;;;;4915757;28;20219;-88
2024/03/09 08:27:42;;;;;;;28.63;23.80;;;;;;;;;;4920640;29;20231;-88
2024/03/09 08:30:15;;;;;;;29.37;22.23;;;;;;;;;;4917964;28;20224;-85
2024/03/09 08:32:44;;;;;;;29.80;22.93;;;;;;;;;;4937837;28;20239;-88
2024/03/09 08:35:10;;;;;;;29.43;22.50;;;;;;;;;;4936770;28;20245;-88
2024/03/09 08:37:41;;;;;;;31.00;22.47;;;;;;;;;;4939419;29;20241;-88
2024/03/09 08:40:10;;;;;;;29.33;23.20;;;;;;;;;;4953014;28;20333;-88
2024/03/09 08:42:36;;;;;;;27.60;22.30;;;;;;;;;;4932531;29;20710;-87
2024/03/09 08:45:02;;;;;;;31.30;21.73;;;;;;;;;;4931243;29;20274;-87
2024/03/09 08:47:30;;;;;;;27.63;22.10;;;;;;;;;;4916803;29;20223;-88
2024/03/09 08:49:58;;;;;;;29.20;22.90;;;;;;;;;;4943723;28;20221;-88
2024/03/09 08:52:24;;;;;;;28.23;22.63;;;;;;;;;;4941099;28;20846;-87
2024/03/09 08:54:50;;;;;;;30.00;23.03;;;;;;;;;;4938746;29;20230;-87
2024/03/09 08:57:17;;;;;;;29.90;22.97;;;;;;;;;;4929168;28;20254;-89
2024/03/09 08:59:48;;;;;;;28.57;22.50;;;;;;;;;;4945157;29;20287;-87
2024/03/09 09:02:14;;;;;;;30.40;23.03;;;;;;;;;;4920137;28;20235;-87
2024/03/09 09:04:41;;;;;;;28.30;23.13;;;;;;;;;;4925323;29;20243;-87
2024/03/09 09:07:07;;;;;;;29.47;23.03;;;;;;;;;;4899118;29;20226;-88
2024/03/09 09:09:33;;;;;;;30.00;22.53;;;;;;;;;;4946536;28;20228;-88
2024/03/09 09:11:59;;;;;;;26.27;21.33;;;;;;;;;;4956863;29;20279;-88
2024/03/09 09:14:28;;;;;;;29.13;22.63;;;;;;;;;;4904945;29;20210;-87
2024/03/09 09:16:57;;;;;;;28.10;23.27;;;;;;;;;;4958262;28;20263;-86
2024/03/09 09:19:22;;;;;;;25.53;20.97;;;;;;;;;;4905321;28;20230;-84
2024/03/09 09:21:48;;;;;;;28.27;22.17;;;;;;;;;;4935031;29;20219;-86
2024/03/09 09:24:16;;;;;;;25.07;21.30;;;;;;;;;;4939296;28;20220;-87
2024/03/09 09:26:43;;;;;;;24.27;20.87;;;;;;;;;;4933786;29;20661;-86
2024/03/09 09:29:10;;;;;;;25.50;20.67;;;;;;;;;;4936543;28;20235;-86
2024/03/09 09:31:38;;;;;;;25.03;20.23;;;;;;;;;;4938211;29;20232;-87
2024/03/09 09:34:03;;;;;;;25.20;20.40;;;;;;;;;;4939934;28;20234;-88
2024/03/09 09:36:29;;;;;;;24.40;21.07;;;;;;;;;;4921386;29;20220;-86
2024/03/09 09:39:01;;;;;;;25.83;20.83;;;;;;;;;;4954912;29;20580;-86
2024/03/09 09:41:30;;;;;;;26.33;21.50;;;;;;;;;;4920175;28;20829;-87
2024/03/09 09:43:57;;;;;;;25.87;20.97;;;;;;;;;;4921193;29;20263;-86
2024/03/09 09:46:33;;;;;;;24.27;20.47;;;;;;;;;;4952101;28;20218;-88
2024/03/09 09:49:00;;;;;;;27.30;20.63;;;;;;;;;;4956509;28;20684;-88
2024/03/09 09:51:26;;;;;;;24.63;20.00;;;;;;;;;;4925356;29;20255;-86
2024/03/09 09:53:54;;;;;;;25.33;20.77;;;;;;;;;;4944779;29;20375;-88
2024/03/09 09:56:23;;;;;;;26.20;20.93;;;;;;;;;;4921888;28;20242;-86
2024/03/09 09:58:49;;;;;;;24.97;21.27;;;;;;;;;;4907050;29;20223;-88
2024/03/09 10:01:21;;;;;;;25.23;19.97;;;;;;;;;;4961775;28;20244;-89
2024/03/09 10:03:47;;;;;;;23.00;19.87;;;;;;;;;;4943559;29;20294;-85
2024/03/09 10:06:20;;;;;;;25.10;20.60;;;;;;;;;;4924409;28;20224;-85
2024/03/09 10:08:49;;;;;;;23.77;19.93;;;;;;;;;;4959096;28;20235;-89
2024/03/09 10:11:24;;;;;;;24.17;19.57;;;;;;;;;;4905301;28;20239;-90
2024/03/09 10:13:52;;;;;;;24.80;20.20;;;;;;;;;;4920494;29;20227;-86
2024/03/09 10:16:28;;;;;;;24.33;18.83;;;;;;;;;;4908709;28;20844;-78
2024/03/09 10:18:57;;;;;;;21.87;17.87;;;;;;;;;;4923117;29;21039;-77
2024/03/09 10:21:29;;;;;;;21.03;17.13;;;;;;;;;;4922526;28;20211;-77
2024/03/09 10:24:04;;;;;;;24.83;19.80;;;;;;;;;;4918674;29;20253;-78
2024/03/09 10:26:30;;;;;;;23.23;19.20;;;;;;;;;;4944546;29;20230;-78
2024/03/09 10:29:03;;;;;;;23.27;18.90;;;;;;;;;;4939261;28;20762;-80
2024/03/09 10:31:32;;;;;;;21.73;18.00;;;;;;;;;;4944737;28;20821;-77
2024/03/09 10:34:00;;;;;;;20.80;17.87;;;;;;;;;;4946296;28;20228;-79
2024/03/09 10:36:26;;;;;;;22.73;17.73;;;;;;;;;;4931058;28;20291;-79
2024/03/09 10:38:54;;;;;;;20.07;17.50;;;;;;;;;;4932449;28;20494;-78
2024/03/09 10:41:23;;;;;;;19.83;16.93;;;;;;;;;;4937573;28;20287;-79
2024/03/09 10:43:52;;;;;;;17.97;16.03;;;;;;;;;;4933954;28;20228;-81
2024/03/09 10:46:29;;;;;;;19.03;16.23;;;;;;;;;;4918512;28;20255;-80
2024/03/09 10:48:56;;;;;;;17.70;15.80;;;;;;;;;;4939024;28;20228;-78
2024/03/09 10:51:35;;;;;;;19.30;15.83;;;;;;;;;;4915028;29;20223;-80
2024/03/09 10:54:19;;;;;;;17.77;15.50;;;;;;;;;;4945916;28;20241;-78
2024/03/09 10:56:46;;;;;;;16.30;14.13;;;;;;;;;;4951893;28;20236;-79
2024/03/09 10:59:13;;;;;;;18.03;14.53;;;;;;;;;;4915990;29;20274;-76
2024/03/09 11:01:39;;;;;;;17.97;14.90;;;;;;;;;;4935887;28;20302;-80
2024/03/09 11:04:04;;;;;;;16.20;14.47;;;;;;;;;;4913779;28;20239;-78
2024/03/09 11:06:30;;;;;;;19.27;15.37;;;;;;;;;;4912594;29;20232;-77
2024/03/09 11:09:00;;;;;;;18.53;15.30;;;;;;;;;;4943495;29;20219;-80
2024/03/09 11:11:31;;;;;;;17.67;15.27;;;;;;;;;;4912499;29;20219;-80
2024/03/09 11:13:57;;;;;;;18.37;15.40;;;;;;;;;;4932785;29;20231;-78
2024/03/09 11:16:26;;;;;;;17.43;14.50;;;;;;;;;;4893065;28;20317;-78
2024/03/09 11:18:56;;;;;;;16.67;14.17;;;;;;;;;;4926301;29;20996;-78
2024/03/09 11:21:22;;;;;;;17.77;15.30;;;;;;;;;;4919281;29;20224;-79
2024/03/09 11:23:48;;;;;;;18.03;15.37;;;;;;;;;;4929219;28;20258;-78
2024/03/09 11:26:14;;;;;;;16.93;15.00;;;;;;;;;;4902048;28;20234;-77
2024/03/09 11:28:42;;;;;;;20.17;15.20;;;;;;;;;;4961494;28;20239;-78
2024/03/09 11:31:11;;;;;;;16.47;14.83;;;;;;;;;;4949614;28;20232;-79
2024/03/09 11:33:41;;;;;;;18.37;15.27;;;;;;;;;;4914827;29;20316;-80
2024/03/09 11:36:41;;;;;;;17.17;14.50;;;;;;;;;;4919774;28;20223;-78
2024/03/09 11:39:06;;;;;;;18.80;15.30;;;;;;;;;;4941483;28;20227;-79
2024/03/09 11:41:35;;;;;;;17.77;15.30;;;;;;;;;;4935121;29;20245;-77
2024/03/09 11:44:04;;;;;;;16.13;13.90;;;;;;;;;;4946552;28;20775;-79
2024/03/09 11:46:36;;;;;;;16.03;13.73;;;;;;;;;;4920739;29;20249;-77
2024/03/09 11:49:04;;;;;;;19.07;13.80;;;;;;;;;;4928332;28;20294;-78
2024/03/09 11:51:33;;;;;;;16.13;13.40;;;;;;;;;;4919237;29;20805;-80
2024/03/09 11:54:03;;;;;;;15.63;13.20;;;;;;;;;;4878117;29;20228;-78
2024/03/09 11:56:32;;;;;;;15.93;13.57;;;;;;;;;;4943374;28;20246;-77
2024/03/09 11:58:58;;;;;;;15.10;13.10;;;;;;;;;;4925352;28;20228;-79
2024/03/09 12:01:24;;;;;;;15.07;12.93;;;;;;;;;;4917796;29;20247;-80
2024/03/09 12:03:53;;;;;;;13.70;12.27;;;;;;;;;;4951851;28;20239;-78
2024/03/09 12:06:21;;;;;;;13.90;12.50;;;;;;;;;;4939378;28;20222;-79
2024/03/09 12:08:51;;;;;;;15.03;12.67;;;;;;;;;;4920566;29;20231;-80
2024/03/09 12:11:22;;;;;;;14.40;12.53;;;;;;;;;;4948918;28;20223;-77
2024/03/09 12:13:47;;;;;;;13.70;12.20;;;;;;;;;;4929410;28;20262;-80
2024/03/09 12:16:14;;;;;;;15.57;12.47;;;;;;;;;;4936756;29;20872;-78
2024/03/09 12:18:42;;;;;;;14.60;12.27;;;;;;;;;;4895183;29;20230;-78
2024/03/09 12:21:08;;;;;;;13.63;11.67;;;;;;;;;;4952276;28;20219;-79
2024/03/09 12:23:36;;;;;;;13.13;11.73;;;;;;;;;;4944219;28;20230;-79
2024/03/09 12:26:02;;;;;;;13.93;12.37;;;;;;;;;;4927690;29;20236;-79
2024/03/09 12:28:32;;;;;;;15.27;12.07;;;;;;;;;;4940153;28;20243;-80
2024/03/09 12:30:58;;;;;;;13.93;12.23;;;;;;;;;;4923442;28;20236;-77
2024/03/09 12:33:27;;;;;;;13.53;11.83;;;;;;;;;;4907010;28;20243;-79
2024/03/09 12:35:59;;;;;;;14.27;12.20;;;;;;;;;;4925676;29;20246;-79
2024/03/09 12:38:25;;;;;;;14.70;12.67;;;;;;;;;;4964433;28;20273;-79
2024/03/09 12:40:53;;;;;;;13.87;12.30;;;;;;;;;;4941085;28;20231;-77
2024/03/09 12:43:19;;;;;;;16.00;12.43;;;;;;;;;;4944413;29;20759;-79
2024/03/09 12:45:54;;;;;;;14.87;13.33;;;;;;;;;;4949765;28;20231;-79
2024/03/09 12:48:23;;;;;;;14.87;13.30;;;;;;;;;;4933664;28;20218;-80
2024/03/09 12:50:55;;;;;;;13.73;12.10;;;;;;;;;;4930401;28;20331;-77
2024/03/09 12:53:21;;;;;;;16.63;13.30;;;;;;;;;;4944540;28;20770;-78
2024/03/09 12:55:52;;;;;;;14.87;12.90;;;;;;;;;;4946198;28;20232;-76
2024/03/09 12:58:19;;;;;;;14.70;13.20;;;;;;;;;;4923832;28;20243;-81
2024/03/09 13:00:46;;;;;;;14.83;13.07;;;;;;;;;;4925462;29;20226;-79
2024/03/09 13:03:20;;;;;;;14.30;12.70;;;;;;;;;;4926570;29;20334;-78
2024/03/09 13:05:50;;;;;;;14.97;13.00;;;;;;;;;;4925471;29;20241;-78
2024/03/09 13:08:19;;;;;;;16.10;13.67;;;;;;;;;;4913244;29;20254;-77
2024/03/09 13:10:47;;;;;;;15.80;12.97;;;;;;;;;;4910480;29;20239;-80
2024/03/09 13:13:15;;;;;;;16.20;13.13;;;;;;;;;;4913644;29;20234;-81
2024/03/09 13:15:44;;;;;;;16.27;13.83;;;;;;;;;;4942645;28;20234;-77
2024/03/09 13:18:09;;;;;;;17.30;14.83;;;;;;;;;;4946429;28;20234;-79
2024/03/09 13:20:39;;;;;;;15.70;13.87;;;;;;;;;;4936615;28;20235;-79
2024/03/09 13:23:05;;;;;;;16.10;14.30;;;;;;;;;;4945157;28;20234;-78
2024/03/09 13:25:33;;;;;;;16.97;14.27;;;;;;;;;;4929415;29;20883;-78
2024/03/09 13:28:07;;;;;;;15.27;13.57;;;;;;;;;;4955503;28;20236;-78
2024/03/09 13:30:39;;;;;;;16.30;14.53;;;;;;;;;;4926556;29;20286;-78
2024/03/09 13:33:04;;;;;;;16.47;14.50;;;;;;;;;;4913947;29;20250;-78
2024/03/09 13:35:30;;;;;;;18.47;15.17;;;;;;;;;;4913851;29;20259;-80
2024/03/09 13:37:56;;;;;;;17.73;15.17;;;;;;;;;;4918103;29;20235;-78
2024/03/09 13:40:25;;;;;;;17.40;14.97;;;;;;;;;;4937170;28;20234;-78
2024/03/09 13:42:55;;;;;;;18.00;15.33;;;;;;;;;;4920799;29;20334;-77
2024/03/09 13:45:23;;;;;;;16.33;14.57;;;;;;;;;;4936162;28;20222;-78
2024/03/09 13:48:08;;;;;;;18.87;14.67;;;;;;;;;;4921841;29;20605;-76
2024/03/09 13:50:36;;;;;;;19.00;16.03;;;;;;;;;;4944797;28;20565;-78
2024/03/09 13:53:05;;;;;;;18.23;15.27;;;;;;;;;;4922845;29;20662;-79
2024/03/09 13:55:34;;;;;;;18.00;15.47;;;;;;;;;;4905748;29;20628;-78
2024/03/09 13:58:02;;;;;;;18.30;15.87;;;;;;;;;;4938513;28;20236;-77
2024/03/09 14:00:29;;;;;;;18.77;15.80;;;;;;;;;;4933155;28;20242;-78
2024/03/09 14:02:58;;;;;;;17.97;16.03;;;;;;;;;;4925951;28;20930;-78
2024/03/09 14:05:29;;;;;;;18.37;15.83;;;;;;;;;;4922389;28;20985;-77
2024/03/09 14:07:59;;;;;;;18.70;16.07;;;;;;;;;;4955692;28;20227;-77
2024/03/09 14:10:38;;;;;;;19.23;16.00;;;;;;;;;;4911894;28;20335;-77
2024/03/09 14:13:08;;;;;;;21.13;16.43;;;;;;;;;;4916876;28;20227;-77
2024/03/09 14:15:41;;;;;;;20.30;16.93;;;;;;;;;;4938875;28;20337;-78
2024/03/09 14:18:14;;;;;;;20.27;17.03;;;;;;;;;;4952323;28;20240;-77
2024/03/09 14:20:42;;;;;;;18.43;16.03;;;;;;;;;;4905027;29;20982;-77
2024/03/09 14:23:09;;;;;;;19.90;16.73;;;;;;;;;;4941435;28;20231;-77
2024/03/09 14:25:34;;;;;;;18.50;16.50;;;;;;;;;;4923617;28;20253;-79
2024/03/09 14:28:03;;;;;;;21.37;16.90;;;;;;;;;;4943405;29;20247;-79